createdAt,value
2022-11-24T00:00:51.287Z,100.00
2022-11-24T00:03:19.469Z,100.00
2022-11-24T00:05:49.123Z,100.00
2022-11-24T00:08:17.001Z,100.00
2022-11-24T00:10:44.824Z,100.00
2022-11-24T00:13:12.843Z,100.00
2022-11-24T00:15:40.783Z,100.00
2022-11-24T00:18:08.616Z,100.00
2022-11-24T00:20:36.508Z,100.00
2022-11-24T00:23:05.731Z,100.00
2022-11-24T00:25:33.588Z,100.00
2022-11-24T00:28:01.445Z,100.00
2022-11-24T00:30:29.345Z,100.00
2022-11-24T00:32:57.299Z,100.00
2022-11-24T00:35:25.233Z,100.00
2022-11-24T00:37:53.978Z,100.00
2022-11-24T00:40:23.259Z,100.00
2022-11-24T00:42:51.104Z,100.00
2022-11-24T00:45:18.934Z,100.00
2022-11-24T00:47:46.761Z,100.00
2022-11-24T00:50:14.662Z,100.00
2022-11-24T00:52:42.547Z,100.00
2022-11-24T00:55:10.748Z,100.00
2022-11-24T00:57:40.031Z,100.00
2022-11-24T01:00:09.589Z,100.00
2022-11-24T01:02:37.556Z,100.00
2022-11-24T01:05:05.970Z,100.00
2022-11-24T01:07:33.829Z,100.00
2022-11-24T01:10:01.836Z,100.00
2022-11-24T01:12:29.879Z,100.00
2022-11-24T01:14:59.695Z,100.00
2022-11-24T01:17:27.756Z,100.00
2022-11-24T01:19:55.671Z,100.00
2022-11-24T01:22:24.963Z,100.00
2022-11-24T01:24:52.827Z,100.00
2022-11-24T01:27:20.625Z,100.00
2022-11-24T01:29:48.460Z,100.00
2022-11-24T01:32:17.650Z,100.00
2022-11-24T01:34:45.472Z,100.00
2022-11-24T01:37:13.304Z,100.00
2022-11-24T01:39:41.300Z,100.00
2022-11-24T01:42:09.676Z,100.00
2022-11-24T01:44:37.579Z,100.00
2022-11-24T01:47:14.660Z,100.00
2022-11-24T01:49:47.541Z,100.00
2022-11-24T01:52:19.947Z,100.00
2022-11-24T01:54:51.042Z,100.00
2022-11-24T01:57:25.088Z,100.00
2022-11-24T01:59:58.423Z,100.00
2022-11-24T02:02:29.548Z,100.00
2022-11-24T02:05:01.188Z,100.00
2022-11-24T02:07:29.324Z,100.00
2022-11-24T02:10:00.657Z,100.00
2022-11-24T02:12:28.995Z,100.00
2022-11-24T02:14:57.622Z,100.00
2022-11-24T02:17:25.528Z,100.00
2022-11-24T02:19:59.063Z,100.00
2022-11-24T02:22:35.112Z,100.00
2022-11-24T02:25:08.299Z,100.00
2022-11-24T02:27:37.803Z,100.00
2022-11-24T02:30:06.433Z,100.00
2022-11-24T02:32:34.647Z,100.00
2022-11-24T02:35:03.149Z,100.00
2022-11-24T02:37:31.056Z,100.00
2022-11-24T02:39:59.012Z,100.00
2022-11-24T02:42:28.939Z,100.00
2022-11-24T02:45:01.598Z,100.00
2022-11-24T02:47:29.922Z,100.00
2022-11-24T02:49:57.870Z,100.00
2022-11-24T02:52:25.840Z,100.00
2022-11-24T02:54:53.724Z,100.00
2022-11-24T02:57:23.604Z,100.00
2022-11-24T02:59:51.499Z,100.00
2022-11-24T03:02:20.933Z,100.00
2022-11-24T03:04:48.928Z,100.00
2022-11-24T03:07:17.109Z,100.00
2022-11-24T03:09:45.065Z,100.00
2022-11-24T03:12:12.958Z,100.00
2022-11-24T03:14:40.811Z,100.00
2022-11-24T03:17:08.687Z,100.00
2022-11-24T03:19:38.168Z,100.00
2022-11-24T03:22:06.053Z,100.00
2022-11-24T03:24:34.214Z,100.00
2022-11-24T03:27:02.374Z,100.00
2022-11-24T03:29:30.406Z,100.00
2022-11-24T03:31:58.612Z,100.00
2022-11-24T03:34:26.544Z,100.00
2022-11-24T03:36:55.787Z,100.00
2022-11-24T03:39:23.649Z,100.00
2022-11-24T03:41:52.479Z,100.00
2022-11-24T03:44:20.357Z,100.00
2022-11-24T03:46:48.308Z,100.00
2022-11-24T03:49:16.135Z,100.00
2022-11-24T03:51:44.048Z,100.00
2022-11-24T03:54:13.255Z,100.00
2022-11-24T03:56:41.081Z,100.00
2022-11-24T03:59:08.899Z,100.00
2022-11-24T04:01:36.791Z,100.00
2022-11-24T04:04:04.775Z,100.00
2022-11-24T04:06:32.712Z,100.00
2022-11-24T04:09:01.409Z,100.00
2022-11-24T04:11:53.171Z,100.00
2022-11-24T04:14:21.063Z,100.00
2022-11-24T04:16:48.986Z,100.00
2022-11-24T04:19:16.823Z,100.00
2022-11-24T04:21:44.886Z,100.00
2022-11-24T04:24:12.855Z,100.00
2022-11-24T04:26:42.147Z,100.00
2022-11-24T04:29:10.841Z,100.00
2022-11-24T04:31:39.044Z,100.00
2022-11-24T04:34:06.967Z,100.00
2022-11-24T04:36:34.812Z,100.00
2022-11-24T04:39:19.669Z,100.00
2022-11-24T04:41:52.172Z,100.00
2022-11-24T04:44:20.101Z,100.00
2022-11-24T04:46:47.978Z,100.00
2022-11-24T04:49:16.024Z,100.00
2022-11-24T04:51:44.265Z,100.00
2022-11-24T04:54:13.892Z,100.00
2022-11-24T04:56:42.334Z,100.00
2022-11-24T04:59:15.765Z,100.00
2022-11-24T05:01:44.044Z,100.00
2022-11-24T05:04:13.382Z,100.00
2022-11-24T05:06:41.660Z,100.00
2022-11-24T05:09:09.873Z,100.00
2022-11-24T05:11:36.731Z,100.00
2022-11-24T05:14:04.763Z,100.00
2022-11-24T05:16:34.009Z,100.00
2022-11-24T05:19:01.918Z,100.00
2022-11-24T05:21:29.909Z,100.00
2022-11-24T05:23:58.000Z,100.00
2022-11-24T05:26:26.199Z,100.00
2022-11-24T05:28:54.136Z,100.00
2022-11-24T05:31:22.037Z,100.00
2022-11-24T05:33:51.496Z,100.00
2022-11-24T05:36:33.200Z,100.00
2022-11-24T05:39:01.107Z,100.00
2022-11-24T05:41:28.923Z,100.00
2022-11-24T05:43:57.155Z,100.00
2022-11-24T05:46:25.077Z,100.00
2022-11-24T05:48:54.301Z,100.00
2022-11-24T05:51:22.343Z,99.75
2022-11-24T05:53:50.180Z,99.54
2022-11-24T05:56:18.000Z,98.61
2022-11-24T05:58:45.856Z,98.78
2022-11-24T06:01:13.660Z,98.80
2022-11-24T06:03:41.550Z,99.42
2022-11-24T06:06:11.867Z,98.82
2022-11-24T06:08:39.758Z,99.18
2022-11-24T06:11:18.559Z,99.55
2022-11-24T06:13:48.269Z,99.44
2022-11-24T06:16:16.588Z,99.83
2022-11-24T06:18:44.527Z,99.57
2022-11-24T06:21:13.860Z,100.00
2022-11-24T06:23:41.982Z,100.00
2022-11-24T06:26:10.508Z,100.00
2022-11-24T06:28:38.349Z,98.84
2022-11-24T06:31:06.954Z,99.10
2022-11-24T06:33:36.103Z,99.42
2022-11-24T06:36:05.967Z,100.00
2022-11-24T06:38:37.008Z,99.15
2022-11-24T06:41:07.311Z,98.53
2022-11-24T06:43:36.993Z,98.75
2022-11-24T06:46:05.370Z,99.32
2022-11-24T06:48:33.885Z,99.52
2022-11-24T06:51:03.014Z,98.90
2022-11-24T06:53:31.598Z,98.97
2022-11-24T06:56:03.054Z,99.59
2022-11-24T06:58:30.949Z,99.52
2022-11-24T07:00:58.864Z,100.00
2022-11-24T07:03:26.871Z,99.55
2022-11-24T07:05:58.452Z,100.00
2022-11-24T07:08:27.159Z,99.46
2022-11-24T07:10:55.055Z,100.00
2022-11-24T07:13:24.293Z,99.90
2022-11-24T07:15:52.344Z,100.00
2022-11-24T07:18:20.336Z,100.00
2022-11-24T07:20:48.182Z,100.00
2022-11-24T07:23:16.020Z,100.00
2022-11-24T07:25:43.912Z,100.00
2022-11-24T07:28:11.838Z,100.00
2022-11-24T07:30:41.292Z,100.00
2022-11-24T07:33:09.108Z,100.00
2022-11-24T07:35:36.961Z,100.00
2022-11-24T07:38:04.813Z,100.00
2022-11-24T07:40:32.651Z,100.00
2022-11-24T07:43:02.385Z,100.00
2022-11-24T07:45:30.300Z,100.00
2022-11-24T07:47:59.671Z,100.00
2022-11-24T07:50:27.516Z,100.00
2022-11-24T07:52:55.377Z,100.00
2022-11-24T07:55:23.205Z,100.00
2022-11-24T07:57:51.133Z,100.00
2022-11-24T08:00:19.766Z,100.00
2022-11-24T08:02:47.596Z,100.00
2022-11-24T08:05:16.817Z,100.00
2022-11-24T08:07:45.927Z,100.00
2022-11-24T08:10:13.948Z,100.00
2022-11-24T08:12:43.806Z,100.00
2022-11-24T08:15:12.351Z,100.00
2022-11-24T08:17:40.310Z,100.00
2022-11-24T08:20:09.897Z,100.00
2022-11-24T08:22:39.119Z,100.00
2022-11-24T08:25:07.879Z,100.00
2022-11-24T08:27:35.703Z,100.00
2022-11-24T08:30:03.623Z,100.00
2022-11-24T08:32:31.567Z,100.00
2022-11-24T08:35:12.992Z,100.00
2022-11-24T08:37:42.910Z,100.00
2022-11-24T08:40:12.251Z,100.00
2022-11-24T08:42:40.226Z,100.00
2022-11-24T08:45:20.574Z,100.00
2022-11-24T08:47:53.413Z,100.00
2022-11-24T08:50:21.682Z,100.00
2022-11-24T08:52:53.131Z,100.00
2022-11-24T08:55:21.849Z,100.00
2022-11-24T08:57:49.699Z,100.00
2022-11-24T09:00:22.675Z,100.00
2022-11-24T09:03:08.132Z,100.00
2022-11-24T09:05:52.762Z,100.00
2022-11-24T09:08:22.385Z,100.00
2022-11-24T09:10:50.270Z,100.00
2022-11-24T09:13:18.288Z,100.00
2022-11-24T09:15:46.134Z,100.00
2022-11-24T09:18:14.591Z,100.00
2022-11-24T09:20:42.378Z,100.00
2022-11-24T09:23:10.286Z,100.00
2022-11-24T09:25:39.534Z,99.86
2022-11-24T09:28:07.388Z,98.37
2022-11-24T09:30:35.206Z,100.00
2022-11-24T09:33:03.272Z,97.84
2022-11-24T09:35:31.149Z,96.96
2022-11-24T09:37:59.037Z,95.48
2022-11-24T09:40:27.155Z,94.16
2022-11-24T09:43:02.181Z,94.46
2022-11-24T09:46:04.901Z,93.71
2022-11-24T09:48:37.504Z,91.33
2022-11-24T09:51:07.081Z,92.92
2022-11-24T09:53:41.598Z,93.56
2022-11-24T09:56:19.774Z,93.91
2022-11-24T09:58:51.735Z,94.79
2022-11-24T10:01:21.505Z,95.29
2022-11-24T10:03:51.722Z,93.18
2022-11-24T10:06:24.977Z,93.72
2022-11-24T10:09:09.599Z,90.99
2022-11-24T10:11:44.140Z,88.99
2022-11-24T10:14:50.985Z,87.30
2022-11-24T10:17:31.180Z,88.87
2022-11-24T10:20:05.980Z,91.07
2022-11-24T10:22:48.361Z,87.85
2022-11-24T10:25:25.662Z,86.12
2022-11-24T10:27:59.969Z,88.65
2022-11-24T10:30:29.576Z,91.05
2022-11-24T10:32:59.688Z,91.31
2022-11-24T10:35:37.463Z,88.38
2022-11-24T10:38:15.300Z,86.47
2022-11-24T10:41:02.974Z,86.44
2022-11-24T10:43:31.016Z,78.54
2022-11-24T10:46:10.639Z,79.54
2022-11-24T10:48:44.830Z,72.85
2022-11-24T10:51:38.117Z,75.56
2022-11-24T10:54:13.514Z,72.98
2022-11-24T10:56:41.967Z,73.13
2022-11-24T10:59:34.276Z,69.45
2022-11-24T11:02:04.371Z,69.83
2022-11-24T11:04:34.469Z,67.29
2022-11-24T11:07:09.843Z,66.76
2022-11-24T11:09:37.885Z,66.30
2022-11-24T11:12:42.053Z,66.28
2022-11-24T11:15:23.465Z,66.81
2022-11-24T11:17:57.364Z,70.59
2022-11-24T11:20:30.011Z,71.95
2022-11-24T11:22:59.873Z,73.25
2022-11-24T11:25:33.193Z,73.74
2022-11-24T11:28:27.686Z,73.85
2022-11-24T11:31:19.820Z,74.44
2022-11-24T11:34:04.129Z,73.67
2022-11-24T11:36:34.162Z,73.66
2022-11-24T11:39:03.843Z,71.12
2022-11-24T11:41:34.883Z,73.60
2022-11-24T11:44:13.092Z,69.59
2022-11-24T11:46:40.948Z,68.11
2022-11-24T11:49:12.699Z,66.09
2022-11-24T11:51:57.632Z,68.95
2022-11-24T11:54:41.546Z,68.69
2022-11-24T11:57:13.064Z,66.30
2022-11-24T11:59:56.378Z,63.42
2022-11-24T12:02:58.019Z,63.33
2022-11-24T12:05:32.611Z,66.49
2022-11-24T12:08:21.256Z,66.73
2022-11-24T12:10:56.174Z,63.83
2022-11-24T12:13:42.818Z,62.78
2022-11-24T12:16:21.784Z,59.71
2022-11-24T12:18:59.113Z,60.24
2022-11-24T12:21:35.548Z,62.02
2022-11-24T12:24:16.679Z,63.60
2022-11-24T12:26:49.732Z,65.79
2022-11-24T12:29:48.822Z,65.61
2022-11-24T12:32:31.434Z,67.55
2022-11-24T12:35:08.882Z,67.66
2022-11-24T12:37:51.380Z,66.47
2022-11-24T12:40:29.325Z,67.92
2022-11-24T12:43:08.447Z,69.31
2022-11-24T12:45:46.350Z,69.93
2022-11-24T12:48:30.040Z,69.75
2022-11-24T12:50:59.689Z,70.35
2022-11-24T12:53:33.200Z,71.59
2022-11-24T12:56:08.688Z,70.11
2022-11-24T12:58:45.722Z,70.32
2022-11-24T13:01:25.702Z,70.01
2022-11-24T13:04:17.252Z,69.34
2022-11-24T13:06:56.319Z,70.78
2022-11-24T13:09:25.648Z,70.34
2022-11-24T13:11:59.181Z,71.28
2022-11-24T13:14:33.758Z,70.71
2022-11-24T13:17:29.371Z,70.67
2022-11-24T13:20:15.648Z,71.26
2022-11-24T13:22:49.704Z,72.08
2022-11-24T13:25:22.355Z,74.42
2022-11-24T13:27:53.148Z,75.62
2022-11-24T13:30:56.169Z,73.74
2022-11-24T13:33:37.680Z,73.46
2022-11-24T13:36:31.137Z,73.82
2022-11-24T13:38:59.674Z,71.55
2022-11-24T13:42:42.287Z,71.64
2022-11-24T13:45:03.179Z,72.74
2022-11-24T13:47:34.245Z,70.82
2022-11-24T13:50:03.682Z,71.33
2022-11-24T13:52:45.087Z,70.13
2022-11-24T13:55:27.016Z,68.89
2022-11-24T13:57:57.380Z,69.07
2022-11-24T14:00:29.360Z,70.28
2022-11-24T14:03:01.920Z,70.38
2022-11-24T14:05:37.768Z,71.67
2022-11-24T14:08:08.327Z,71.32
2022-11-24T14:10:38.300Z,71.13
2022-11-24T14:13:26.277Z,71.51
2022-11-24T14:16:04.305Z,71.32
2022-11-24T14:18:32.611Z,71.01
2022-11-24T14:21:02.606Z,70.96
2022-11-24T14:23:30.479Z,71.19
2022-11-24T14:25:58.427Z,71.08
2022-11-24T14:28:29.200Z,71.95
2022-11-24T14:31:09.821Z,72.15
2022-11-24T14:33:37.921Z,73.07
2022-11-24T14:36:06.507Z,72.99
2022-11-24T14:38:35.213Z,73.63
2022-11-24T14:41:23.095Z,74.76
2022-11-24T14:43:51.083Z,75.25
2022-11-24T14:46:21.423Z,75.42
2022-11-24T14:48:51.713Z,75.63
2022-11-24T14:51:24.414Z,76.04
2022-11-24T14:53:56.548Z,75.60
2022-11-24T14:56:27.491Z,75.52
2022-11-24T14:58:56.426Z,76.23
2022-11-24T15:01:32.800Z,75.13
2022-11-24T15:04:32.407Z,76.45
2022-11-24T15:07:08.122Z,75.84
2022-11-24T15:09:39.894Z,76.36
2022-11-24T15:12:10.401Z,76.72
2022-11-24T15:14:51.321Z,76.92
2022-11-24T15:17:23.947Z,78.11
2022-11-24T15:19:58.108Z,78.21
2022-11-24T15:22:41.141Z,79.62
2022-11-24T15:25:33.624Z,80.18
2022-11-24T15:28:02.062Z,80.65
2022-11-24T15:30:31.266Z,81.02
2022-11-24T15:33:01.008Z,82.06
2022-11-24T15:35:32.135Z,82.54
2022-11-24T15:38:01.335Z,82.56
2022-11-24T15:40:29.307Z,82.80
2022-11-24T15:43:02.048Z,82.57
2022-11-24T15:45:35.597Z,82.84
2022-11-24T15:48:05.549Z,82.45
2022-11-24T15:50:33.516Z,82.53
2022-11-24T15:53:01.429Z,82.96
2022-11-24T15:55:29.546Z,82.50
2022-11-24T15:57:57.379Z,82.35
2022-11-24T16:00:25.718Z,81.91
2022-11-24T16:02:53.754Z,81.34
2022-11-24T16:05:23.023Z,81.21
2022-11-24T16:07:51.270Z,81.30
2022-11-24T16:10:26.109Z,82.31
2022-11-24T16:12:54.123Z,82.15
2022-11-24T16:15:22.055Z,81.66
2022-11-24T16:17:50.141Z,83.00
2022-11-24T16:20:18.400Z,82.45
2022-11-24T16:22:47.731Z,82.33
2022-11-24T16:25:16.105Z,82.90
2022-11-24T16:27:44.085Z,83.02
2022-11-24T16:30:14.279Z,84.10
2022-11-24T16:32:43.379Z,85.17
2022-11-24T16:35:11.266Z,85.19
2022-11-24T16:37:39.213Z,86.33
2022-11-24T16:40:09.965Z,87.06
2022-11-24T16:42:38.394Z,88.19
2022-11-24T16:45:06.998Z,88.36
2022-11-24T16:47:40.116Z,88.28
2022-11-24T16:50:09.249Z,89.10
2022-11-24T16:52:37.338Z,89.32
2022-11-24T16:55:05.681Z,89.15
2022-11-24T16:57:35.019Z,89.47
2022-11-24T17:00:03.196Z,89.41
2022-11-24T17:02:31.228Z,90.23
2022-11-24T17:04:59.124Z,91.14
2022-11-24T17:07:28.177Z,92.04
2022-11-24T17:09:56.178Z,92.19
2022-11-24T17:12:24.056Z,92.48
2022-11-24T17:15:24.330Z,92.99
2022-11-24T17:18:01.385Z,93.32
2022-11-24T17:20:31.369Z,94.42
2022-11-24T17:22:59.694Z,95.31
2022-11-24T17:25:28.016Z,95.35
2022-11-24T17:27:55.863Z,94.49
2022-11-24T17:30:25.202Z,93.94
2022-11-24T17:32:56.813Z,94.44
2022-11-24T17:35:25.068Z,94.34
2022-11-24T17:37:53.716Z,94.96
2022-11-24T17:40:28.235Z,96.31
2022-11-24T17:43:00.063Z,97.48
2022-11-24T17:45:30.837Z,98.65
2022-11-24T17:48:00.504Z,99.08
2022-11-24T17:50:28.774Z,97.89
2022-11-24T17:52:56.616Z,98.85
2022-11-24T17:55:25.527Z,99.98
2022-11-24T17:57:53.386Z,100.00
2022-11-24T18:00:21.778Z,100.00
2022-11-24T18:02:51.377Z,100.00
2022-11-24T18:05:19.386Z,100.00
2022-11-24T18:07:47.561Z,100.00
2022-11-24T18:10:15.988Z,100.00
2022-11-24T18:12:44.294Z,100.00
2022-11-24T18:15:12.424Z,100.00
2022-11-24T18:17:40.395Z,100.00
2022-11-24T18:20:10.723Z,100.00
2022-11-24T18:25:26.424Z,100.00
2022-11-24T18:27:54.345Z,100.00
2022-11-24T18:30:22.596Z,100.00
2022-11-24T18:32:50.576Z,100.00
2022-11-24T18:35:20.265Z,100.00
2022-11-24T18:37:48.118Z,100.00
2022-11-24T18:40:16.251Z,100.00
2022-11-24T18:42:44.213Z,100.00
2022-11-24T18:45:12.834Z,100.00
2022-11-24T18:47:40.649Z,100.00
2022-11-24T18:50:09.961Z,100.00
2022-11-24T18:52:39.228Z,100.00
2022-11-24T18:55:07.912Z,100.00
2022-11-24T18:57:35.765Z,100.00
2022-11-24T19:00:04.307Z,100.00
2022-11-24T19:02:32.366Z,100.00
2022-11-24T19:05:00.862Z,100.00
2022-11-24T19:07:28.785Z,100.00
2022-11-24T19:09:58.064Z,100.00
2022-11-24T19:12:25.980Z,100.00
2022-11-24T19:14:55.314Z,100.00
2022-11-24T19:17:23.161Z,100.00
2022-11-24T19:19:51.729Z,100.00
2022-11-24T19:22:19.581Z,100.00
2022-11-24T19:24:47.621Z,100.00
2022-11-24T19:27:18.486Z,100.00
2022-11-24T19:29:46.901Z,100.00
2022-11-24T19:32:14.942Z,100.00
2022-11-24T19:34:42.781Z,100.00
2022-11-24T19:37:10.700Z,100.00
2022-11-24T19:39:38.527Z,100.00
2022-11-24T19:42:06.555Z,100.00
2022-11-24T19:44:36.704Z,100.00
2022-11-24T19:47:04.878Z,100.00
2022-11-24T19:49:33.293Z,100.00
2022-11-24T19:52:01.780Z,100.00
2022-11-24T19:54:29.810Z,100.00
2022-11-24T19:56:57.660Z,100.00
2022-11-24T19:59:26.508Z,100.00
2022-11-24T20:01:56.637Z,100.00
2022-11-24T20:04:24.690Z,100.00
2022-11-24T20:06:52.761Z,100.00
2022-11-24T20:09:20.676Z,100.00
2022-11-24T20:11:49.159Z,100.00
2022-11-24T20:14:19.302Z,100.00
2022-11-24T20:16:48.036Z,100.00
2022-11-24T20:19:18.766Z,100.00
2022-11-24T20:21:49.379Z,100.00
2022-11-24T20:24:19.569Z,100.00
2022-11-24T20:26:49.455Z,100.00
2022-11-24T20:29:17.898Z,100.00
2022-11-24T20:31:47.628Z,100.00
2022-11-24T20:34:17.880Z,100.00
2022-11-24T20:36:47.796Z,100.00
2022-11-24T20:39:18.055Z,100.00
2022-11-24T20:41:46.011Z,100.00
2022-11-24T20:44:17.178Z,100.00
2022-11-24T20:46:46.737Z,100.00
2022-11-24T20:49:17.729Z,100.00
2022-11-24T20:51:47.796Z,100.00
2022-11-24T20:54:17.409Z,100.00
2022-11-24T20:56:46.627Z,100.00
2022-11-24T20:59:16.825Z,100.00
2022-11-24T21:01:46.400Z,100.00
2022-11-24T21:04:19.116Z,100.00
2022-11-24T21:06:47.536Z,100.00
2022-11-24T21:09:15.773Z,100.00
2022-11-24T21:11:44.112Z,100.00
2022-11-24T21:14:12.643Z,100.00
2022-11-24T21:16:42.282Z,100.00
2022-11-24T21:19:13.766Z,100.00
2022-11-24T21:21:43.998Z,100.00
2022-11-24T21:24:13.751Z,100.00
2022-11-24T21:26:42.932Z,100.00
2022-11-24T21:29:13.911Z,100.00
2022-11-24T21:31:42.311Z,100.00
2022-11-24T21:34:10.647Z,100.00
2022-11-24T21:36:40.793Z,100.00
2022-11-24T21:39:12.753Z,100.00
2022-11-24T21:41:40.776Z,100.00
2022-11-24T21:44:08.923Z,100.00
2022-11-24T21:46:43.640Z,100.00
2022-11-24T21:49:14.347Z,100.00
2022-11-24T21:51:42.149Z,100.00
2022-11-24T21:54:11.577Z,100.00
2022-11-24T21:56:39.449Z,100.00
2022-11-24T21:59:07.315Z,100.00
2022-11-24T22:01:35.242Z,100.00
2022-11-24T22:04:03.107Z,100.00
2022-11-24T22:06:32.029Z,100.00
2022-11-24T22:08:59.981Z,100.00
2022-11-24T22:11:29.237Z,100.00
2022-11-24T22:13:57.102Z,100.00
2022-11-24T22:16:25.894Z,100.00
2022-11-24T22:18:54.083Z,100.00
2022-11-24T22:21:24.176Z,100.00
2022-11-24T22:23:53.135Z,100.00
2022-11-24T22:26:22.365Z,100.00
2022-11-24T22:28:52.293Z,100.00
2022-11-24T22:31:22.232Z,100.00
2022-11-24T22:33:50.781Z,100.00
2022-11-24T22:36:20.828Z,100.00
2022-11-24T22:38:49.406Z,100.00
2022-11-24T22:41:19.232Z,100.00
2022-11-24T22:43:48.893Z,100.00
2022-11-24T22:46:19.781Z,100.00
2022-11-24T22:48:49.252Z,100.00
2022-11-24T22:51:18.781Z,100.00
2022-11-24T22:53:48.959Z,100.00
2022-11-24T22:56:17.598Z,100.00
2022-11-24T22:58:45.588Z,100.00
2022-11-24T23:01:14.698Z,100.00
2022-11-24T23:03:44.620Z,100.00
2022-11-24T23:06:14.220Z,100.00
2022-11-24T23:08:42.360Z,100.00
2022-11-24T23:11:12.812Z,100.00
2022-11-24T23:13:41.196Z,100.00
2022-11-24T23:16:11.407Z,100.00
2022-11-24T23:18:40.029Z,100.00
2022-11-24T23:21:11.703Z,100.00
2022-11-24T23:23:39.882Z,100.00
2022-11-24T23:26:09.892Z,100.00
2022-11-24T23:28:38.023Z,100.00
2022-11-24T23:31:07.880Z,100.00
2022-11-24T23:33:36.692Z,100.00
2022-11-24T23:36:07.207Z,100.00
2022-11-24T23:38:37.432Z,100.00
2022-11-24T23:41:07.382Z,100.00
2022-11-24T23:43:36.083Z,100.00
2022-11-24T23:46:05.126Z,100.00
2022-11-24T23:48:33.785Z,100.00
2022-11-24T23:51:05.783Z,100.00
2022-11-24T23:53:34.475Z,100.00
2022-11-24T23:56:04.333Z,100.00
2022-11-24T23:58:32.552Z,100.00
